Pilot information for Mpaka Airport

[ general | frequencies | runways | weather | notam | navaids | links ]

Caution: This page displays community-maintained data: information may be missing, incorrect, or out of date. Please confirm with an official source before making travel plans.

General information for Mpaka Airport

Airport codes: FZFQ
Type: local airport(light traffic)
Scheduled airline service: no
Serves: Mpaka, Equateur, Congo (Kinshasa)
Latitude: 4.117000 | 4 7.020006 N | N04 07 01
Longitude: 19.216999 | 19 13.019943 E | E019 13 01
Field elevation: 1,969 ft/600 m MSL

Radio communication frequencies for Mpaka Airport

No communications frequencies known for Mpaka Airport.

Members can add and update frequencies.

Runways at Mpaka Airport

No runway information available for Mpaka Airport.

Members can add and update runway information.

Aviation weather for Mpaka Airport

Current conditions (METAR) for Mpaka Airport

Closest report is Bangui M'Poko International Airport, 45.1 nm (83.5 km) WNW. Retrieved 2014/09/18 13:00:

FEFF 181300Z 36012KT 9999 TS SCT020 BKN030 FEW033CB 26/22 Q1011 TEMPO 36012G22KT

Forecast (TAF) for Mpaka Airport

Closest forecast is Bangui M'Poko International Airport, 45.1 nm (83.5 km) WNW. Retrieved 2014/09/18 12:00:

TAF FCBB 181100Z 1812/1918 24004KT 8000 FEW023= TAF FEFF 181100Z 1812/1918 20006KT 9999 BKN030 FEW040CB 
      TEMPO 1814/1817 08012G25KT 4000 TSRA BKN010 
      BECMG 1819/1821 CAVOK PROB30 1903/1906 3000 BR BKN004

Notices to Airmen (NOTAM) for Mpaka Airport

Please confirm all NOTAMs at the original source! These are for information only, and may be wrong, out of date, or incomplete.

We have no current NOTAMs for Mpaka Airport. Please check with an official source to confirm.